sensor_id;sensor_type;location;lat;lon;timestamp;P1;durP1;ratioP1;P2;durP2;ratioP2
83398;SDS011;73326;43.228;0.106;2024-01-10T13:50:15;17.90;;;11.00;;
83398;SDS011;73326;43.228;0.106;2024-01-10T13:52:41;29.80;;;17.52;;
83398;SDS011;73326;43.228;0.106;2024-01-10T13:55:08;31.30;;;18.20;;
83398;SDS011;73326;43.228;0.106;2024-01-10T13:57:34;31.67;;;17.85;;
83398;SDS011;73326;43.228;0.106;2024-01-10T14:00:01;27.98;;;16.40;;
83398;SDS011;73326;43.228;0.106;2024-01-10T14:02:28;26.85;;;16.13;;
83398;SDS011;73326;43.228;0.106;2024-01-10T14:04:54;24.10;;;13.73;;
83398;SDS011;73326;43.228;0.106;2024-01-10T14:07:22;20.58;;;12.30;;
83398;SDS011;73326;43.228;0.106;2024-01-10T14:09:49;19.85;;;12.18;;
83398;SDS011;73326;43.228;0.106;2024-01-10T14:12:15;20.65;;;11.75;;
83398;SDS011;73326;43.228;0.106;2024-01-10T14:14:41;20.77;;;11.70;;
83398;SDS011;73326;43.228;0.106;2024-01-10T14:17:07;18.25;;;11.23;;
83398;SDS011;73326;43.228;0.106;2024-01-10T14:19:33;19.08;;;10.93;;
83398;SDS011;73326;43.228;0.106;2024-01-10T14:21:59;19.25;;;11.90;;
83398;SDS011;73326;43.228;0.106;2024-01-10T14:24:25;21.42;;;12.40;;
83398;SDS011;73326;43.228;0.106;2024-01-10T14:26:51;22.10;;;12.95;;
83398;SDS011;73326;43.228;0.106;2024-01-10T14:29:18;23.10;;;12.40;;
83398;SDS011;73326;43.228;0.106;2024-01-10T14:31:44;22.55;;;12.50;;
83398;SDS011;73326;43.228;0.106;2024-01-10T14:34:10;20.90;;;10.98;;
83398;SDS011;73326;43.228;0.106;2024-01-10T14:36:39;21.10;;;12.57;;
83398;SDS011;73326;43.228;0.106;2024-01-10T14:39:05;21.55;;;12.57;;
83398;SDS011;73326;43.228;0.106;2024-01-10T14:41:37;21.73;;;12.98;;
83398;SDS011;73326;43.228;0.106;2024-01-10T14:44:03;21.40;;;12.52;;
83398;SDS011;73326;43.228;0.106;2024-01-10T14:46:29;21.58;;;12.77;;
83398;SDS011;73326;43.228;0.106;2024-01-10T14:48:55;24.20;;;13.40;;
83398;SDS011;73326;43.228;0.106;2024-01-10T14:51:21;21.58;;;12.85;;
83398;SDS011;73326;43.228;0.106;2024-01-10T14:53:47;19.15;;;11.77;;
83398;SDS011;73326;43.228;0.106;2024-01-10T14:56:13;20.63;;;11.35;;
83398;SDS011;73326;43.228;0.106;2024-01-10T14:58:39;22.63;;;12.85;;
83398;SDS011;73326;43.228;0.106;2024-01-10T15:01:08;26.98;;;13.93;;
83398;SDS011;73326;43.228;0.106;2024-01-10T15:03:35;25.08;;;14.10;;
83398;SDS011;73326;43.228;0.106;2024-01-10T15:06:03;23.15;;;14.23;;
83398;SDS011;73326;43.228;0.106;2024-01-10T15:08:30;21.95;;;12.05;;
83398;SDS011;73326;43.228;0.106;2024-01-10T15:10:56;20.20;;;12.32;;
83398;SDS011;73326;43.228;0.106;2024-01-10T15:13:22;23.75;;;12.85;;
83398;SDS011;73326;43.228;0.106;2024-01-10T15:15:48;24.98;;;12.88;;
83398;SDS011;73326;43.228;0.106;2024-01-10T15:18:14;27.05;;;13.57;;
83398;SDS011;73326;43.228;0.106;2024-01-10T15:20:40;23.45;;;13.40;;
83398;SDS011;73326;43.228;0.106;2024-01-10T15:23:06;24.48;;;13.88;;
83398;SDS011;73326;43.228;0.106;2024-01-10T15:25:32;27.88;;;14.05;;
83398;SDS011;73326;43.228;0.106;2024-01-10T15:27:58;24.65;;;13.10;;
83398;SDS011;73326;43.228;0.106;2024-01-10T15:30:25;24.23;;;13.73;;
83398;SDS011;73326;43.228;0.106;2024-01-10T15:32:51;26.45;;;14.00;;
83398;SDS011;73326;43.228;0.106;2024-01-10T15:35:17;24.98;;;14.55;;
83398;SDS011;73326;43.228;0.106;2024-01-10T15:37:44;25.00;;;13.98;;
83398;SDS011;73326;43.228;0.106;2024-01-10T15:40:11;24.88;;;12.95;;
83398;SDS011;73326;43.228;0.106;2024-01-10T15:42:40;24.17;;;12.65;;
83398;SDS011;73326;43.228;0.106;2024-01-10T15:45:07;24.33;;;13.50;;
83398;SDS011;73326;43.228;0.106;2024-01-10T15:47:33;28.48;;;14.45;;
83398;SDS011;73326;43.228;0.106;2024-01-10T15:49:59;26.48;;;14.73;;
83398;SDS011;73326;43.228;0.106;2024-01-10T15:52:25;27.15;;;13.40;;
83398;SDS011;73326;43.228;0.106;2024-01-10T15:54:55;27.42;;;13.98;;
83398;SDS011;73326;43.228;0.106;2024-01-10T15:57:24;23.30;;;12.90;;
83398;SDS011;73326;43.228;0.106;2024-01-10T15:59:50;25.67;;;13.23;;
83398;SDS011;73326;43.228;0.106;2024-01-10T16:02:16;26.80;;;14.68;;
83398;SDS011;73326;43.228;0.106;2024-01-10T16:04:42;23.50;;;13.68;;
83398;SDS011;73326;43.228;0.106;2024-01-10T16:07:09;24.15;;;13.88;;
83398;SDS011;73326;43.228;0.106;2024-01-10T16:09:38;30.38;;;15.65;;
83398;SDS011;73326;43.228;0.106;2024-01-10T16:12:04;28.33;;;14.65;;
83398;SDS011;73326;43.228;0.106;2024-01-10T16:14:30;26.05;;;13.93;;
83398;SDS011;73326;43.228;0.106;2024-01-10T16:16:57;25.52;;;13.82;;
83398;SDS011;73326;43.228;0.106;2024-01-10T16:19:23;24.17;;;12.85;;
83398;SDS011;73326;43.228;0.106;2024-01-10T16:21:49;26.60;;;14.38;;
83398;SDS011;73326;43.228;0.106;2024-01-10T16:24:15;30.65;;;15.90;;
83398;SDS011;73326;43.228;0.106;2024-01-10T16:26:41;24.95;;;15.15;;
83398;SDS011;73326;43.228;0.106;2024-01-10T16:29:07;30.23;;;16.08;;
83398;SDS011;73326;43.228;0.106;2024-01-10T16:31:33;29.27;;;15.98;;
83398;SDS011;73326;43.228;0.106;2024-01-10T16:34:00;26.65;;;14.95;;
83398;SDS011;73326;43.228;0.106;2024-01-10T16:36:26;25.30;;;14.55;;
83398;SDS011;73326;43.228;0.106;2024-01-10T16:38:52;22.80;;;13.25;;
83398;SDS011;73326;43.228;0.106;2024-01-10T16:41:19;25.15;;;14.27;;
83398;SDS011;73326;43.228;0.106;2024-01-10T16:43:46;25.60;;;14.88;;
83398;SDS011;73326;43.228;0.106;2024-01-10T16:46:12;33.88;;;20.48;;
83398;SDS011;73326;43.228;0.106;2024-01-10T16:48:39;36.60;;;20.38;;
83398;SDS011;73326;43.228;0.106;2024-01-10T16:51:05;37.97;;;22.17;;
83398;SDS011;73326;43.228;0.106;2024-01-10T16:53:32;37.28;;;19.75;;
83398;SDS011;73326;43.228;0.106;2024-01-10T16:55:58;31.58;;;18.90;;
83398;SDS011;73326;43.228;0.106;2024-01-10T16:58:24;42.13;;;21.08;;
83398;SDS011;73326;43.228;0.106;2024-01-10T17:00:50;37.95;;;20.10;;
83398;SDS011;73326;43.228;0.106;2024-01-10T17:03:16;32.47;;;19.35;;
83398;SDS011;73326;43.228;0.106;2024-01-10T17:05:42;28.85;;;16.67;;
83398;SDS011;73326;43.228;0.106;2024-01-10T17:08:09;33.03;;;18.52;;
83398;SDS011;73326;43.228;0.106;2024-01-10T17:10:35;30.33;;;18.35;;
83398;SDS011;73326;43.228;0.106;2024-01-10T17:13:01;35.45;;;19.58;;
83398;SDS011;73326;43.228;0.106;2024-01-10T17:15:29;37.70;;;20.52;;
83398;SDS011;73326;43.228;0.106;2024-01-10T17:17:55;41.08;;;22.00;;
83398;SDS011;73326;43.228;0.106;2024-01-10T17:20:22;46.38;;;22.77;;
83398;SDS011;73326;43.228;0.106;2024-01-10T17:22:50;38.42;;;20.95;;
83398;SDS011;73326;43.228;0.106;2024-01-10T17:25:18;39.10;;;21.27;;
83398;SDS011;73326;43.228;0.106;2024-01-10T17:27:44;37.05;;;20.88;;
83398;SDS011;73326;43.228;0.106;2024-01-10T17:30:10;33.90;;;18.70;;
83398;SDS011;73326;43.228;0.106;2024-01-10T17:32:36;30.92;;;18.80;;
83398;SDS011;73326;43.228;0.106;2024-01-10T17:35:02;33.60;;;20.00;;
83398;SDS011;73326;43.228;0.106;2024-01-10T17:37:28;32.13;;;18.42;;
83398;SDS011;73326;43.228;0.106;2024-01-10T17:39:54;36.15;;;20.20;;
83398;SDS011;73326;43.228;0.106;2024-01-10T17:42:20;45.13;;;21.98;;
83398;SDS011;73326;43.228;0.106;2024-01-10T17:44:46;38.67;;;21.77;;
83398;SDS011;73326;43.228;0.106;2024-01-10T17:47:12;33.40;;;19.13;;
83398;SDS011;73326;43.228;0.106;2024-01-10T17:49:40;33.90;;;21.00;;
83398;SDS011;73326;43.228;0.106;2024-01-10T17:52:06;36.35;;;19.98;;
83398;SDS011;73326;43.228;0.106;2024-01-10T17:54:32;40.05;;;21.90;;
83398;SDS011;73326;43.228;0.106;2024-01-10T17:56:59;30.98;;;18.38;;
83398;SDS011;73326;43.228;0.106;2024-01-10T17:59:25;38.72;;;19.58;;
83398;SDS011;73326;43.228;0.106;2024-01-10T18:01:51;30.80;;;17.98;;
83398;SDS011;73326;43.228;0.106;2024-01-10T18:04:17;39.97;;;21.48;;
83398;SDS011;73326;43.228;0.106;2024-01-10T18:06:43;30.45;;;17.35;;
83398;SDS011;73326;43.228;0.106;2024-01-10T18:09:09;26.48;;;16.10;;
83398;SDS011;73326;43.228;0.106;2024-01-10T18:11:35;29.27;;;16.20;;
83398;SDS011;73326;43.228;0.106;2024-01-10T18:14:01;28.98;;;15.98;;
83398;SDS011;73326;43.228;0.106;2024-01-10T18:16:27;31.15;;;17.80;;
83398;SDS011;73326;43.228;0.106;2024-01-10T18:18:53;28.13;;;17.27;;
83398;SDS011;73326;43.228;0.106;2024-01-10T18:21:19;34.53;;;19.10;;
83398;SDS011;73326;43.228;0.106;2024-01-10T18:23:45;36.47;;;19.77;;
83398;SDS011;73326;43.228;0.106;2024-01-10T18:26:11;32.17;;;19.27;;
83398;SDS011;73326;43.228;0.106;2024-01-10T18:28:37;36.58;;;20.33;;
83398;SDS011;73326;43.228;0.106;2024-01-10T18:31:03;34.03;;;19.63;;
83398;SDS011;73326;43.228;0.106;2024-01-10T18:33:30;32.47;;;19.55;;
83398;SDS011;73326;43.228;0.106;2024-01-10T18:35:56;33.50;;;19.13;;
83398;SDS011;73326;43.228;0.106;2024-01-10T18:38:22;29.92;;;17.52;;
83398;SDS011;73326;43.228;0.106;2024-01-10T18:40:48;28.83;;;17.02;;
83398;SDS011;73326;43.228;0.106;2024-01-10T18:43:15;28.35;;;17.90;;
83398;SDS011;73326;43.228;0.106;2024-01-10T18:45:41;34.58;;;19.50;;
83398;SDS011;73326;43.228;0.106;2024-01-10T18:48:07;28.90;;;16.77;;
83398;SDS011;73326;43.228;0.106;2024-01-10T18:50:33;31.85;;;19.40;;
83398;SDS011;73326;43.228;0.106;2024-01-10T18:52:59;33.60;;;20.88;;
83398;SDS011;73326;43.228;0.106;2024-01-10T18:55:26;32.53;;;19.30;;
83398;SDS011;73326;43.228;0.106;2024-01-10T18:57:52;34.72;;;20.15;;
83398;SDS011;73326;43.228;0.106;2024-01-10T19:00:20;34.30;;;21.30;;
83398;SDS011;73326;43.228;0.106;2024-01-10T19:02:51;34.47;;;20.80;;
83398;SDS011;73326;43.228;0.106;2024-01-10T19:05:17;37.78;;;24.08;;
83398;SDS011;73326;43.228;0.106;2024-01-10T19:07:44;40.15;;;23.88;;
83398;SDS011;73326;43.228;0.106;2024-01-10T19:10:10;38.92;;;23.92;;
83398;SDS011;73326;43.228;0.106;2024-01-10T19:12:37;40.95;;;24.70;;
83398;SDS011;73326;43.228;0.106;2024-01-10T19:15:03;38.72;;;23.70;;
83398;SDS011;73326;43.228;0.106;2024-01-10T19:17:29;45.97;;;26.45;;
83398;SDS011;73326;43.228;0.106;2024-01-10T19:19:55;46.80;;;28.92;;
83398;SDS011;73326;43.228;0.106;2024-01-10T19:22:21;39.15;;;25.58;;
83398;SDS011;73326;43.228;0.106;2024-01-10T19:24:47;44.03;;;24.95;;
83398;SDS011;73326;43.228;0.106;2024-01-10T19:27:13;42.22;;;25.90;;
83398;SDS011;73326;43.228;0.106;2024-01-10T19:29:41;50.30;;;27.08;;
83398;SDS011;73326;43.228;0.106;2024-01-10T19:32:07;42.92;;;26.05;;
83398;SDS011;73326;43.228;0.106;2024-01-10T19:34:33;44.30;;;26.70;;
83398;SDS011;73326;43.228;0.106;2024-01-10T19:36:59;39.65;;;24.98;;
83398;SDS011;73326;43.228;0.106;2024-01-10T19:39:25;44.70;;;28.30;;
83398;SDS011;73326;43.228;0.106;2024-01-10T19:41:52;50.42;;;30.23;;
83398;SDS011;73326;43.228;0.106;2024-01-10T19:44:19;48.38;;;29.33;;
83398;SDS011;73326;43.228;0.106;2024-01-10T19:46:45;58.25;;;34.63;;
83398;SDS011;73326;43.228;0.106;2024-01-10T19:49:12;51.58;;;31.83;;
83398;SDS011;73326;43.228;0.106;2024-01-10T19:51:38;53.53;;;30.80;;
83398;SDS011;73326;43.228;0.106;2024-01-10T19:54:04;48.35;;;28.20;;
83398;SDS011;73326;43.228;0.106;2024-01-10T19:56:30;46.85;;;30.73;;
83398;SDS011;73326;43.228;0.106;2024-01-10T19:58:57;47.08;;;28.95;;
83398;SDS011;73326;43.228;0.106;2024-01-10T20:01:23;51.28;;;32.35;;
83398;SDS011;73326;43.228;0.106;2024-01-10T20:03:49;57.03;;;37.13;;
83398;SDS011;73326;43.228;0.106;2024-01-10T20:06:15;63.15;;;39.85;;
83398;SDS011;73326;43.228;0.106;2024-01-10T20:08:42;60.97;;;37.35;;
83398;SDS011;73326;43.228;0.106;2024-01-10T20:11:08;58.05;;;35.15;;
83398;SDS011;73326;43.228;0.106;2024-01-10T20:13:34;55.28;;;33.65;;
83398;SDS011;73326;43.228;0.106;2024-01-10T20:16:00;56.95;;;32.60;;
83398;SDS011;73326;43.228;0.106;2024-01-10T20:18:28;64.93;;;36.20;;
83398;SDS011;73326;43.228;0.106;2024-01-10T20:20:56;73.35;;;39.60;;
83398;SDS011;73326;43.228;0.106;2024-01-10T20:23:22;75.45;;;39.53;;
83398;SDS011;73326;43.228;0.106;2024-01-10T20:25:49;71.93;;;40.42;;
83398;SDS011;73326;43.228;0.106;2024-01-10T20:28:15;74.55;;;39.63;;
83398;SDS011;73326;43.228;0.106;2024-01-10T20:30:44;68.72;;;40.70;;
83398;SDS011;73326;43.228;0.106;2024-01-10T20:33:10;73.85;;;43.85;;
83398;SDS011;73326;43.228;0.106;2024-01-10T20:35:36;69.90;;;41.03;;
83398;SDS011;73326;43.228;0.106;2024-01-10T20:38:02;57.10;;;35.00;;
83398;SDS011;73326;43.228;0.106;2024-01-10T20:40:28;57.30;;;34.63;;
83398;SDS011;73326;43.228;0.106;2024-01-10T20:42:54;51.53;;;31.17;;
83398;SDS011;73326;43.228;0.106;2024-01-10T20:45:20;50.95;;;32.50;;
83398;SDS011;73326;43.228;0.106;2024-01-10T20:47:47;28.75;;;17.95;;
83398;SDS011;73326;43.228;0.106;2024-01-10T20:50:13;34.78;;;19.00;;
83398;SDS011;73326;43.228;0.106;2024-01-10T20:52:40;23.92;;;13.98;;
83398;SDS011;73326;43.228;0.106;2024-01-10T20:55:06;21.10;;;13.05;;
83398;SDS011;73326;43.228;0.106;2024-01-10T20:57:32;19.27;;;10.43;;
83398;SDS011;73326;43.228;0.106;2024-01-10T20:59:58;18.45;;;10.20;;
83398;SDS011;73326;43.228;0.106;2024-01-10T21:02:28;20.23;;;11.77;;
83398;SDS011;73326;43.228;0.106;2024-01-10T21:04:54;19.63;;;10.20;;
83398;SDS011;73326;43.228;0.106;2024-01-10T21:07:20;19.17;;;9.43;;
83398;SDS011;73326;43.228;0.106;2024-01-10T21:09:46;19.45;;;10.15;;
83398;SDS011;73326;43.228;0.106;2024-01-10T21:12:12;21.95;;;10.30;;
83398;SDS011;73326;43.228;0.106;2024-01-10T21:14:39;21.58;;;10.25;;
83398;SDS011;73326;43.228;0.106;2024-01-10T21:17:10;19.45;;;9.55;;
83398;SDS011;73326;43.228;0.106;2024-01-10T21:19:37;22.42;;;11.85;;
83398;SDS011;73326;43.228;0.106;2024-01-10T21:22:03;25.23;;;11.90;;
83398;SDS011;73326;43.228;0.106;2024-01-10T21:24:29;21.17;;;10.50;;
83398;SDS011;73326;43.228;0.106;2024-01-10T21:26:59;24.50;;;12.02;;
83398;SDS011;73326;43.228;0.106;2024-01-10T21:29:25;24.33;;;12.75;;
83398;SDS011;73326;43.228;0.106;2024-01-10T21:31:51;25.73;;;12.82;;
83398;SDS011;73326;43.228;0.106;2024-01-10T21:34:18;21.60;;;11.98;;
83398;SDS011;73326;43.228;0.106;2024-01-10T21:36:44;22.00;;;11.80;;
83398;SDS011;73326;43.228;0.106;2024-01-10T21:39:10;23.50;;;12.50;;
83398;SDS011;73326;43.228;0.106;2024-01-10T21:41:36;24.63;;;12.73;;
83398;SDS011;73326;43.228;0.106;2024-01-10T21:44:02;21.27;;;12.35;;
83398;SDS011;73326;43.228;0.106;2024-01-10T21:46:28;25.73;;;12.48;;
83398;SDS011;73326;43.228;0.106;2024-01-10T21:48:54;25.75;;;12.27;;
83398;SDS011;73326;43.228;0.106;2024-01-10T21:51:21;27.17;;;12.75;;
83398;SDS011;73326;43.228;0.106;2024-01-10T21:53:47;22.58;;;10.77;;
83398;SDS011;73326;43.228;0.106;2024-01-10T21:56:14;23.00;;;12.82;;
83398;SDS011;73326;43.228;0.106;2024-01-10T21:58:40;22.65;;;11.80;;
83398;SDS011;73326;43.228;0.106;2024-01-10T22:01:06;28.63;;;13.52;;
83398;SDS011;73326;43.228;0.106;2024-01-10T22:03:32;24.45;;;13.60;;
83398;SDS011;73326;43.228;0.106;2024-01-10T22:05:59;26.65;;;13.00;;
83398;SDS011;73326;43.228;0.106;2024-01-10T22:08:25;25.25;;;12.77;;
83398;SDS011;73326;43.228;0.106;2024-01-10T22:10:51;23.10;;;12.93;;
83398;SDS011;73326;43.228;0.106;2024-01-10T22:13:17;27.48;;;13.43;;
83398;SDS011;73326;43.228;0.106;2024-01-10T22:15:43;23.45;;;12.30;;
83398;SDS011;73326;43.228;0.106;2024-01-10T22:18:09;24.80;;;12.05;;
83398;SDS011;73326;43.228;0.106;2024-01-10T22:20:36;23.90;;;12.45;;
83398;SDS011;73326;43.228;0.106;2024-01-10T22:23:02;26.23;;;13.30;;
83398;SDS011;73326;43.228;0.106;2024-01-10T22:25:29;25.10;;;13.27;;
83398;SDS011;73326;43.228;0.106;2024-01-10T22:27:55;24.42;;;12.65;;
83398;SDS011;73326;43.228;0.106;2024-01-10T22:30:20;26.73;;;12.95;;
83398;SDS011;73326;43.228;0.106;2024-01-10T22:32:46;24.30;;;12.88;;
83398;SDS011;73326;43.228;0.106;2024-01-10T22:35:13;20.17;;;10.88;;
83398;SDS011;73326;43.228;0.106;2024-01-10T22:37:39;23.02;;;12.00;;
83398;SDS011;73326;43.228;0.106;2024-01-10T22:40:05;23.40;;;11.93;;
83398;SDS011;73326;43.228;0.106;2024-01-10T22:42:31;22.27;;;11.27;;
83398;SDS011;73326;43.228;0.106;2024-01-10T22:44:57;19.48;;;10.80;;
83398;SDS011;73326;43.228;0.106;2024-01-10T22:47:24;21.23;;;12.18;;
83398;SDS011;73326;43.228;0.106;2024-01-10T22:49:50;21.85;;;11.55;;
83398;SDS011;73326;43.228;0.106;2024-01-10T22:52:16;23.05;;;12.55;;
83398;SDS011;73326;43.228;0.106;2024-01-10T22:54:42;20.13;;;11.02;;
83398;SDS011;73326;43.228;0.106;2024-01-10T22:57:08;20.48;;;10.40;;
83398;SDS011;73326;43.228;0.106;2024-01-10T22:59:34;21.23;;;12.18;;
83398;SDS011;73326;43.228;0.106;2024-01-10T23:02:00;20.38;;;11.30;;
83398;SDS011;73326;43.228;0.106;2024-01-10T23:04:26;20.05;;;11.18;;
83398;SDS011;73326;43.228;0.106;2024-01-10T23:06:52;17.85;;;10.43;;
83398;SDS011;73326;43.228;0.106;2024-01-10T23:09:18;21.42;;;10.63;;
83398;SDS011;73326;43.228;0.106;2024-01-10T23:11:44;19.35;;;10.75;;
83398;SDS011;73326;43.228;0.106;2024-01-10T23:14:10;17.27;;;9.88;;
83398;SDS011;73326;43.228;0.106;2024-01-10T23:16:37;18.75;;;10.98;;
83398;SDS011;73326;43.228;0.106;2024-01-10T23:19:03;18.33;;;10.32;;
83398;SDS011;73326;43.228;0.106;2024-01-10T23:21:29;15.68;;;9.35;;
83398;SDS011;73326;43.228;0.106;2024-01-10T23:23:57;17.40;;;10.05;;
83398;SDS011;73326;43.228;0.106;2024-01-10T23:26:23;19.20;;;10.13;;
83398;SDS011;73326;43.228;0.106;2024-01-10T23:28:49;21.40;;;10.82;;
83398;SDS011;73326;43.228;0.106;2024-01-10T23:31:18;20.13;;;10.38;;
83398;SDS011;73326;43.228;0.106;2024-01-10T23:33:45;20.98;;;11.43;;
83398;SDS011;73326;43.228;0.106;2024-01-10T23:36:11;20.25;;;10.27;;
83398;SDS011;73326;43.228;0.106;2024-01-10T23:38:37;16.95;;;9.50;;
83398;SDS011;73326;43.228;0.106;2024-01-10T23:41:03;17.05;;;9.10;;
83398;SDS011;73326;43.228;0.106;2024-01-10T23:43:30;16.38;;;8.95;;
83398;SDS011;73326;43.228;0.106;2024-01-10T23:45:56;17.45;;;9.05;;
83398;SDS011;73326;43.228;0.106;2024-01-10T23:48:22;19.02;;;9.55;;
83398;SDS011;73326;43.228;0.106;2024-01-10T23:50:48;18.98;;;9.18;;
83398;SDS011;73326;43.228;0.106;2024-01-10T23:53:14;21.08;;;10.38;;
83398;SDS011;73326;43.228;0.106;2024-01-10T23:55:40;16.77;;;8.98;;
83398;SDS011;73326;43.228;0.106;2024-01-10T23:58:07;17.90;;;9.18;;
